Saint-Charles-Sur-Richelieu, Canada
Current Conditions -  °F | °C
As of 8:07 PM on Wednesday 17 Dec 2014 (Local Time) from CYHU Reporting Station
Light Snow Light Snow  
Wind Chill: 27°   Ceiling: 400
Heat Index: 32°   Visibility: 1.7mi
Dew Point: 30°   Wind: 5mph
Humidity: 93%   Direction: 350°N
Pressure: 29.78"   Gusts: NA
Location:  45.68°N, 73.18°W
Report Text: CYHU 180107Z AUTO 35004KT 1 3/4SM -SN OVC004 00/M01 A2978 RMK SLP085
Loading
Personal Weather Stations






























Interactive Weather Map New forecast layout! Learn more

10-Day Weather Forecast

Advertisements
Track Severe Weather on mobile